Time;durP1;ratioP1;P1;durP2;ratioP2;P2;SDS_P1;SDS_P2;PMS_P1;PMS_P2;Temp;Humidity;BMP_temperature;BMP_pressure;BME280_temperature;BME280_humidity;BME280_pressure;Samples;Min_cycle;Max_cycle;Signal;HPM_P1;HPM_P2
2023/08/07 00:00:04;;;;;;;5.57;1.85;;;;;;;23.40;48.11;99160.47;4990022;28;20463;-83
2023/08/07 00:02:29;;;;;;;4.53;2.00;;;;;;;23.21;48.66;99137.19;4972015;28;20026;-83
2023/08/07 00:04:55;;;;;;;4.90;1.75;;;;;;;23.31;48.48;99173.28;4989188;28;20277;-85
2023/08/07 00:07:21;;;;;;;4.65;1.75;;;;;;;23.31;48.73;99157.75;4989135;28;20467;-85
2023/08/07 00:09:49;;;;;;;2.28;1.17;;;;;;;23.21;48.22;99169.00;4989539;28;20033;-88
2023/08/07 00:12:15;;;;;;;3.22;1.33;;;;;;;22.99;48.78;99151.78;4973645;28;20077;-84
2023/08/07 00:14:40;;;;;;;2.38;0.95;;;;;;;23.19;49.07;99188.38;4988679;28;20475;-87
2023/08/07 00:17:05;;;;;;;2.83;0.93;;;;;;;22.92;49.36;99161.53;4973113;28;20034;-85
2023/08/07 00:19:31;;;;;;;2.47;1.00;;;;;;;23.08;49.58;99198.00;4987608;28;20031;-86
2023/08/07 00:21:56;;;;;;;2.22;0.90;;;;;;;23.05;49.33;99182.34;4973068;28;20535;-84
2023/08/07 00:24:24;;;;;;;4.30;1.35;;;;;;;22.82;49.58;99141.75;4990758;28;20030;-87
2023/08/07 00:26:50;;;;;;;4.45;1.45;;;;;;;22.87;49.23;99171.47;4987527;28;20065;-85
2023/08/07 00:29:15;;;;;;;4.47;1.23;;;;;;;23.08;49.25;99200.72;4972311;28;20310;-86
2023/08/07 00:31:41;;;;;;;2.50;1.00;;;;;;;23.02;49.91;99207.44;4988691;28;20092;-84
2023/08/07 00:34:06;;;;;;;3.58;1.50;;;;;;;22.83;49.71;99175.16;4989078;28;20046;-86
2023/08/07 00:36:34;;;;;;;2.55;1.10;;;;;;;22.88;49.76;99202.16;4972065;28;20125;-87
2023/08/07 00:39:00;;;;;;;1.95;1.10;;;;;;;22.90;49.81;99201.84;4973276;28;20316;-84
2023/08/07 00:41:26;;;;;;;3.28;1.38;;;;;;;22.80;50.08;99213.84;4973089;28;20424;-85
2023/08/07 00:43:51;;;;;;;1.80;0.88;;;;;;;22.52;50.56;99199.81;4988333;28;20423;-87
2023/08/07 00:46:18;;;;;;;4.10;1.50;;;;;;;22.41;50.74;99186.53;4971841;28;20163;-85
2023/08/07 00:48:46;;;;;;;2.50;1.10;;;;;;;22.62;51.13;99218.50;4989175;28;20530;-84
2023/08/07 00:51:11;;;;;;;2.60;1.13;;;;;;;22.35;50.48;99179.66;4988676;28;20034;-86
2023/08/07 00:53:39;;;;;;;2.55;1.20;;;;;;;22.59;50.87;99224.56;4987689;28;20410;-85
2023/08/07 00:56:05;;;;;;;2.92;1.27;;;;;;;22.21;51.63;99200.69;4972719;28;20068;-86
2023/08/07 00:58:31;;;;;;;2.47;1.08;;;;;;;22.49;51.95;99208.56;4973240;28;20066;-85
2023/08/07 01:00:57;;;;;;;2.42;1.10;;;;;;;22.30;51.32;99179.81;4972574;28;20042;-85
2023/08/07 01:03:23;;;;;;;5.78;1.25;;;;;;;22.22;51.69;99205.00;4988652;28;20030;-85
2023/08/07 01:05:48;;;;;;;3.03;1.33;;;;;;;22.36;52.13;99237.50;4990427;28;20105;-83
2023/08/07 01:08:16;;;;;;;2.60;1.40;;;;;;;22.05;52.35;99208.50;4989082;28;20419;-85
2023/08/07 01:11:11;;;;;;;3.20;1.00;;;;;;;22.14;52.27;99219.38;4972593;28;20041;-84
2023/08/07 01:14:04;;;;;;;1.35;0.98;;;;;;;22.39;52.16;99247.72;4987712;28;20034;-86
2023/08/07 01:16:52;;;;;;;2.95;1.60;;;;;;;22.12;52.92;99238.69;4972945;28;20041;-84
2023/08/07 01:19:28;;;;;;;3.55;1.65;;;;;;;22.04;53.34;99232.09;4987537;28;20076;-84
2023/08/07 01:22:11;;;;;;;2.72;1.20;;;;;;;21.94;53.85;99224.25;4988877;28;20037;-83
2023/08/07 01:24:38;;;;;;;2.10;1.17;;;;;;;22.13;53.33;99264.75;4989578;28;20534;-86
2023/08/07 01:27:09;;;;;;;1.17;0.80;;;;;;;22.20;53.73;99256.13;4970043;28;20033;-86
2023/08/07 01:29:55;;;;;;;2.58;0.98;;;;;;;22.28;52.53;99249.94;4987905;28;20046;-86
2023/08/07 01:32:35;;;;;;;4.15;1.50;;;;;;;21.87;53.31;99229.38;4969598;28;20125;-83
2023/08/07 01:35:05;;;;;;;2.28;1.10;;;;;;;22.02;53.67;99275.06;4988867;28;20112;-82
2023/08/07 01:37:36;;;;;;;1.92;1.10;;;;;;;22.06;53.48;99270.59;4990078;28;20030;-84
2023/08/07 01:40:03;;;;;;;4.50;1.27;;;;;;;21.69;53.72;99225.78;4972948;28;20042;-84
2023/08/07 01:42:29;;;;;;;2.85;1.38;;;;;;;21.71;54.62;99233.63;4970557;28;20085;-87
2023/08/07 01:44:55;;;;;;;3.80;1.60;;;;;;;21.77;54.47;99260.28;4972478;28;20046;-85
2023/08/07 01:47:20;;;;;;;2.22;1.13;;;;;;;21.95;54.31;99276.66;4989798;28;20437;-84
2023/08/07 01:49:48;;;;;;;5.47;1.30;;;;;;;21.77;54.40;99264.94;4994089;28;20465;-84
2023/08/07 01:52:14;;;;;;;3.13;1.33;;;;;;;21.58;54.41;99236.13;4994340;28;20041;-83
2023/08/07 01:54:39;;;;;;;2.88;1.60;;;;;;;21.50;54.49;99239.59;4992322;28;20034;-84
2023/08/07 01:57:08;;;;;;;1.40;1.10;;;;;;;21.51;55.25;99273.72;4975647;28;20034;-85
2023/08/07 01:59:34;;;;;;;3.30;1.65;;;;;;;21.62;55.22;99264.22;4991244;28;20054;-85
2023/08/07 02:01:59;;;;;;;2.70;1.40;;;;;;;21.62;55.09;99277.00;4992870;28;20030;-87
2023/08/07 02:04:24;;;;;;;2.95;1.40;;;;;;;21.68;55.86;99278.47;4992532;28;20030;-83
2023/08/07 02:06:50;;;;;;;3.35;2.13;;;;;;;21.68;55.50;99273.03;4994816;28;20554;-86
2023/08/07 02:09:15;;;;;;;3.53;1.63;;;;;;;21.53;55.52;99260.66;4976711;28;20407;-86
2023/08/07 02:11:42;;;;;;;4.65;1.80;;;;;;;21.40;56.24;99275.88;4977287;28;20034;-87
2023/08/07 02:14:08;;;;;;;4.82;2.00;;;;;;;21.18;56.55;99263.13;4992436;28;20034;-86
2023/08/07 02:16:33;;;;;;;2.58;1.50;;;;;;;21.23;56.48;99260.31;4976875;28;20044;-84
2023/08/07 02:18:59;;;;;;;5.30;1.48;;;;;;;21.39;56.77;99292.44;4994889;28;20026;-84
2023/08/07 02:21:24;;;;;;;4.35;1.95;;;;;;;21.33;57.24;99294.50;4992612;28;20045;-86
2023/08/07 02:23:50;;;;;;;3.10;1.75;;;;;;;21.27;57.28;99298.47;4975466;28;20308;-85
2023/08/07 02:26:15;;;;;;;4.32;2.10;;;;;;;21.14;57.28;99297.38;4993112;28;20030;-85
2023/08/07 02:28:43;;;;;;;5.00;2.33;;;;;;;21.03;57.50;99287.91;4991959;28;20031;-86
2023/08/07 02:31:08;;;;;;;3.35;1.60;;;;;;;21.15;57.19;99307.16;4972983;28;20120;-88
2023/08/07 02:33:34;;;;;;;3.20;1.70;;;;;;;21.17;57.52;99302.22;4990126;28;20070;-88
2023/08/07 02:35:59;;;;;;;2.92;1.92;;;;;;;21.34;57.80;99319.72;4976289;28;20197;-87
2023/08/07 02:38:25;;;;;;;5.60;1.65;;;;;;;21.12;57.98;99304.22;4976450;28;20026;-87
2023/08/07 02:40:50;;;;;;;2.17;1.63;;;;;;;21.05;57.63;99278.34;4993558;28;20038;-86
2023/08/07 02:43:16;;;;;;;3.03;1.85;;;;;;;20.97;58.43;99297.28;4973629;28;20041;-86
2023/08/07 02:45:41;;;;;;;2.85;1.80;;;;;;;20.99;58.64;99311.31;4988883;28;20042;-87
2023/08/07 02:48:07;;;;;;;5.03;1.80;;;;;;;20.96;58.64;99311.91;4987511;28;20081;-85
2023/08/07 02:50:34;;;;;;;5.80;2.30;;;;;;;20.92;59.13;99305.50;4988009;28;20034;-87
2023/08/07 02:53:01;;;;;;;3.67;2.25;;;;;;;21.10;58.95;99328.94;4971718;28;20546;-86
2023/08/07 02:55:27;;;;;;;3.33;2.03;;;;;;;20.91;59.55;99331.81;4988573;28;20586;-84
2023/08/07 02:57:52;;;;;;;4.45;2.15;;;;;;;20.94;59.20;99324.97;4988071;28;20054;-86
2023/08/07 03:00:21;;;;;;;4.32;2.70;;;;;;;20.90;59.61;99324.78;4973324;28;20035;-86
2023/08/07 03:02:47;;;;;;;4.03;2.42;;;;;;;20.81;60.10;99343.69;4973749;28;20030;-86
2023/08/07 03:05:12;;;;;;;4.32;2.38;;;;;;;20.80;60.18;99343.97;4987795;28;20031;-88
2023/08/07 03:07:38;;;;;;;3.83;2.28;;;;;;;20.81;59.87;99342.88;4987272;28;20022;-83
2023/08/07 03:10:04;;;;;;;3.72;2.20;;;;;;;20.84;60.43;99364.75;4987359;28;20458;-87
2023/08/07 03:12:29;;;;;;;4.10;2.15;;;;;;;20.71;60.40;99343.91;4971437;28;20480;-87
2023/08/07 03:14:55;;;;;;;7.13;2.60;;;;;;;20.77;60.80;99348.09;4986810;28;20031;-87
2023/08/07 03:17:20;;;;;;;3.33;1.95;;;;;;;20.69;60.77;99348.81;4986448;28;20089;-86
2023/08/07 03:19:46;;;;;;;5.13;2.03;;;;;;;20.30;61.92;99323.03;4984332;28;20069;-85
2023/08/07 03:22:13;;;;;;;2.40;1.75;;;;;;;20.65;61.67;99356.75;4984758;28;20058;-88
2023/08/07 03:24:38;;;;;;;3.67;2.30;;;;;;;20.25;62.03;99296.09;4984312;28;20043;-86
2023/08/07 03:27:04;;;;;;;3.67;1.92;;;;;;;20.36;62.44;99327.25;4968536;28;20117;-86
2023/08/07 03:29:29;;;;;;;3.95;2.70;;;;;;;20.43;62.48;99345.78;4967957;28;20083;-84
2023/08/07 03:31:55;;;;;;;4.50;2.47;;;;;;;20.30;62.88;99333.88;4968871;28;20031;-85
2023/08/07 03:34:23;;;;;;;3.40;2.08;;;;;;;20.20;63.91;99350.31;4984629;28;20038;-88
2023/08/07 03:36:48;;;;;;;4.25;2.67;;;;;;;20.34;63.58;99353.84;4984497;28;20038;-85
2023/08/07 03:39:14;;;;;;;4.18;2.50;;;;;;;19.95;64.52;99311.81;4983981;28;20415;-85
2023/08/07 03:41:39;;;;;;;2.95;2.25;;;;;;;20.16;64.36;99338.50;4968162;28;20065;-84
2023/08/07 03:44:07;;;;;;;3.97;2.58;;;;;;;19.99;64.96;99339.09;4968682;28;20027;-82
2023/08/07 03:46:32;;;;;;;4.70;2.67;;;;;;;20.12;64.76;99348.31;4967447;28;20165;-83
2023/08/07 03:48:58;;;;;;;3.65;2.60;;;;;;;20.23;65.10;99358.66;4967717;28;20161;-85
2023/08/07 03:51:23;;;;;;;3.08;2.10;;;;;;;20.12;64.36;99337.47;4984406;28;20031;-85
2023/08/07 03:53:49;;;;;;;4.03;2.63;;;;;;;20.03;64.84;99350.91;4984012;28;20070;-84
2023/08/07 03:56:15;;;;;;;4.43;2.58;;;;;;;20.30;64.31;99349.31;4967497;28;20064;-86
2023/08/07 03:58:43;;;;;;;3.67;2.33;;;;;;;20.11;64.12;99341.31;4983680;28;20066;-87
2023/08/07 04:01:08;;;;;;;5.68;2.63;;;;;;;20.30;64.01;99360.94;4985415;28;20133;-89
2023/08/07 04:03:34;;;;;;;4.22;2.45;;;;;;;20.25;64.70;99374.59;4970765;28;20126;-86
2023/08/07 04:06:05;;;;;;;4.35;2.65;;;;;;;20.02;64.90;99342.00;4970978;28;20041;-85
2023/08/07 04:08:30;;;;;;;5.53;2.97;;;;;;;20.20;65.67;99361.94;4986414;28;20039;-83
2023/08/07 04:11:05;;;;;;;6.80;2.97;;;;;;;20.45;64.76;99374.19;4985126;28;20027;-87
2023/08/07 04:13:31;;;;;;;4.45;2.78;;;;;;;20.22;65.06;99338.09;4986548;28;20041;-83
2023/08/07 04:15:57;;;;;;;5.95;2.95;;;;;;;20.20;64.17;99324.03;4971001;28;20041;-86
2023/08/07 04:18:23;;;;;;;6.13;3.30;;;;;;;20.37;64.48;99365.97;4970261;28;20039;-82
2023/08/07 04:20:56;;;;;;;7.00;3.45;;;;;;;20.38;64.31;99357.53;4969139;28;20042;-83
2023/08/07 04:23:22;;;;;;;5.53;3.53;;;;;;;20.44;64.33;99383.41;4986359;28;20440;-81
2023/08/07 04:25:48;;;;;;;5.68;2.88;;;;;;;20.45;64.22;99363.38;4971395;28;20039;-82
2023/08/07 04:28:16;;;;;;;3.72;2.70;;;;;;;20.62;64.08;99399.91;4971375;28;20038;-85
2023/08/07 04:30:45;;;;;;;5.25;3.22;;;;;;;20.70;63.22;99398.38;4986678;28;20041;-83
2023/08/07 04:33:11;;;;;;;6.15;2.88;;;;;;;20.79;63.27;99402.00;4986173;28;20043;-80
2023/08/07 04:35:36;;;;;;;4.72;2.80;;;;;;;20.90;62.92;99410.72;4971053;28;20038;-82
2023/08/07 04:38:02;;;;;;;5.35;2.75;;;;;;;20.59;63.38;99378.81;4971345;28;20037;-80
2023/08/07 04:40:29;;;;;;;5.47;2.67;;;;;;;20.93;62.56;99399.28;4985891;28;20027;-81
2023/08/07 04:42:55;;;;;;;4.25;2.40;;;;;;;20.69;61.68;99356.94;4971985;28;20089;-81
2023/08/07 04:45:20;;;;;;;4.15;2.85;;;;;;;21.22;61.81;99424.09;4977135;28;20047;-82
2023/08/07 04:47:48;;;;;;;3.72;2.70;;;;;;;21.32;60.59;99392.44;4990884;28;20030;-88
2023/08/07 04:50:13;;;;;;;4.90;2.60;;;;;;;21.26;61.00;99400.69;4990668;28;20077;-85
2023/08/07 04:52:38;;;;;;;4.10;2.95;;;;;;;21.42;60.60;99400.34;4990426;28;20066;-82
2023/08/07 04:55:04;;;;;;;3.95;2.47;;;;;;;21.61;60.09;99425.41;4995952;28;20418;-86
2023/08/07 04:57:30;;;;;;;4.00;2.70;;;;;;;21.40;59.64;99380.84;4996562;28;20034;-87
2023/08/07 04:59:56;;;;;;;3.47;2.40;;;;;;;21.61;59.08;99402.91;5013059;28;20017;-89
2023/08/07 05:02:21;;;;;;;3.40;2.30;;;;;;;21.56;58.54;99379.41;4996061;28;20061;-91
2023/08/07 05:04:46;;;;;;;3.25;2.20;;;;;;;21.97;58.12;99435.38;5013091;28;20030;-88
2023/08/07 05:07:12;;;;;;;3.15;2.25;;;;;;;21.41;58.58;99368.88;4996334;28;20034;-89
2023/08/07 05:09:38;;;;;;;3.35;2.35;;;;;;;21.70;58.26;99394.81;5010953;28;20491;-92
2023/08/07 05:12:04;;;;;;;3.13;2.20;;;;;;;21.55;58.25;99372.38;4995702;28;20034;-91
2023/08/07 05:14:30;;;;;;;4.88;2.30;;;;;;;21.78;57.69;99392.16;4995124;28;20035;-91
2023/08/07 05:16:55;;;;;;;4.53;2.40;;;;;;;22.19;56.90;99415.56;4995805;28;20094;-88
2023/08/07 05:19:21;;;;;;;3.78;2.28;;;;;;;22.41;55.70;99436.47;4995851;28;20034;-89
2023/08/07 05:21:49;;;;;;;5.78;2.90;;;;;;;22.40;56.43;99426.69;4997891;28;20058;-87
2023/08/07 05:24:15;;;;;;;3.00;1.90;;;;;;;22.51;55.03;99426.41;5022473;28;20037;-94
2023/08/07 05:26:41;;;;;;;4.00;2.25;;;;;;;22.49;55.57;99444.94;5036180;28;20010;-90
2023/08/07 05:29:07;;;;;;;2.35;1.80;;;;;;;22.41;54.91;99420.16;5035909;28;20030;-83
2023/08/07 05:31:33;;;;;;;2.90;1.80;;;;;;;22.58;53.89;99434.94;5019610;28;20026;-88
2023/08/07 05:33:58;;;;;;;3.20;2.00;;;;;;;22.76;53.78;99443.91;5035507;28;20033;-88
2023/08/07 05:36:24;;;;;;;2.60;1.65;;;;;;;22.75;53.85;99445.84;5019526;28;20041;-88
2023/08/07 05:38:49;;;;;;;5.90;2.30;;;;;;;22.76;53.33;99414.03;5019523;28;20022;-90
2023/08/07 05:41:16;;;;;;;3.35;1.92;;;;;;;22.90;52.29;99441.09;5019231;28;20097;-90
2023/08/07 05:43:41;;;;;;;3.72;1.70;;;;;;;22.98;53.21;99453.91;5019548;28;20010;-93
2023/08/07 05:46:07;;;;;;;4.47;2.30;;;;;;;22.97;52.08;99430.56;5019129;28;20180;-86
2023/08/07 05:48:32;;;;;;;3.50;2.15;;;;;;;22.90;52.79;99446.53;5019534;28;20084;-89
2023/08/07 05:51:00;;;;;;;3.78;2.38;;;;;;;22.98;52.43;99459.34;5004177;28;20384;-84
2023/08/07 05:53:25;;;;;;;;;;;;;;;23.10;51.21;99462.28;5018293;28;20029;-85
2023/08/07 05:55:51;;;;;;;2.67;1.92;;;;;;;22.82;51.05;99419.00;5016447;28;19913;-85
2023/08/07 05:58:19;;;;;;;4.65;2.30;;;;;;;23.04;51.23;99441.78;4999419;28;20048;-88
2023/08/07 06:00:44;;;;;;;3.88;2.00;;;;;;;23.12;50.52;99464.69;4999557;28;20036;-84
2023/08/07 06:03:10;;;;;;;4.10;2.40;;;;;;;23.34;51.37;99461.84;4997689;28;20038;-90
2023/08/07 06:05:40;;;;;;;3.65;1.85;;;;;;;23.64;49.89;99465.53;4998372;28;20535;-88
2023/08/07 06:08:06;;;;;;;3.45;2.10;;;;;;;23.52;50.33;99468.09;5016125;28;20349;-85
2023/08/07 06:10:31;;;;;;;2.33;1.60;;;;;;;23.65;49.27;99458.94;5016485;28;20029;-85
2023/08/07 06:12:57;;;;;;;2.58;2.08;;;;;;;23.72;48.82;99466.66;4997230;28;20044;-84
2023/08/07 06:15:22;;;;;;;3.35;1.73;;;;;;;24.13;48.62;99475.41;4996791;28;20127;-85
2023/08/07 06:17:48;;;;;;;5.00;2.10;;;;;;;24.05;47.61;99479.78;4992570;28;20037;-89
2023/08/07 06:20:15;;;;;;;3.00;1.80;;;;;;;23.70;48.63;99474.34;5008555;28;20037;-89
2023/08/07 06:22:41;;;;;;;3.25;1.60;;;;;;;23.93;47.97;99466.03;4992131;28;20112;-87
2023/08/07 06:25:07;;;;;;;3.80;2.10;;;;;;;24.01;48.29;99474.16;5009066;28;20616;-86
2023/08/07 06:27:33;;;;;;;1.85;1.58;;;;;;;24.26;47.63;99466.25;4992702;28;20079;-87
2023/08/07 06:29:59;;;;;;;3.25;1.77;;;;;;;24.36;46.91;99457.72;4991926;28;20113;-84
2023/08/07 06:32:25;;;;;;;2.47;1.70;;;;;;;24.44;47.52;99478.72;5009154;28;20419;-84
2023/08/07 06:34:51;;;;;;;3.38;1.80;;;;;;;24.63;46.17;99494.69;5011891;28;20030;-84
2023/08/07 06:37:16;;;;;;;2.17;1.63;;;;;;;24.86;44.63;99508.88;4995447;28;20037;-85
2023/08/07 06:39:41;;;;;;;2.67;1.90;;;;;;;24.96;44.73;99506.91;4995005;28;20109;-83
2023/08/07 06:42:07;;;;;;;2.42;1.75;;;;;;;24.82;44.93;99504.41;5013114;28;20044;-86
2023/08/07 06:44:33;;;;;;;4.95;1.98;;;;;;;24.72;45.10;99481.03;5011377;28;20040;-84
2023/08/07 06:46:58;;;;;;;2.92;1.70;;;;;;;24.96;44.76;99507.69;4994575;28;20072;-86
2023/08/07 06:49:24;;;;;;;2.17;1.77;;;;;;;24.96;45.21;99499.50;5009736;28;20510;-83
2023/08/07 06:51:49;;;;;;;3.90;2.00;;;;;;;25.00;46.18;99451.34;4991225;28;20041;-85
2023/08/07 06:54:15;;;;;;;6.93;2.05;;;;;;;25.41;44.04;99495.44;4991183;28;20145;-85
2023/08/07 06:56:42;;;;;;;1.98;1.35;;;;;;;25.04;42.83;99470.59;4991613;28;20036;-83
2023/08/07 06:59:07;;;;;;;4.78;1.85;;;;;;;25.20;44.72;99482.53;5007834;28;20030;-85
2023/08/07 07:01:33;;;;;;;2.28;1.70;;;;;;;25.28;44.94;99480.13;5009226;28;20044;-80
2023/08/07 07:04:01;;;;;;;3.90;1.85;;;;;;;25.70;44.72;99501.94;5009211;28;20088;-85
2023/08/07 07:06:26;;;;;;;;;;;;;;;25.94;43.36;99504.81;5009693;28;20116;-84
2023/08/07 07:08:55;;;;;;;2.13;1.70;;;;;;;26.05;42.99;99514.22;5008749;28;20019;-83
2023/08/07 07:11:24;;;;;;;3.58;1.42;;;;;;;25.84;42.95;99502.47;4991244;28;20038;-83
2023/08/07 07:13:50;;;;;;;3.50;1.80;;;;;;;25.84;42.41;99527.06;5009232;28;20042;-82
2023/08/07 07:16:18;;;;;;;2.47;1.77;;;;;;;25.42;42.20;99464.28;5008881;28;20030;-83
2023/08/07 07:18:43;;;;;;;1.92;1.50;;;;;;;25.69;41.81;99494.91;5008286;28;20494;-83
2023/08/07 07:21:09;;;;;;;2.08;1.77;;;;;;;25.61;42.66;99511.00;5009044;28;20104;-83
2023/08/07 07:23:34;;;;;;;3.78;1.67;;;;;;;25.77;43.13;99503.03;4991255;28;20762;-85
2023/08/07 07:26:00;;;;;;;3.35;1.75;;;;;;;25.76;41.77;99506.06;5008557;28;20116;-85
2023/08/07 07:28:25;;;;;;;1.85;1.40;;;;;;;26.00;40.99;99506.22;5008734;28;20108;-86
2023/08/07 07:30:51;;;;;;;3.78;1.40;;;;;;;26.02;41.93;99479.34;4990313;28;20030;-83
2023/08/07 07:33:17;;;;;;;1.98;1.40;;;;;;;26.07;38.77;99461.94;4990935;28;20022;-84
2023/08/07 07:35:43;;;;;;;3.08;1.40;;;;;;;26.33;40.19;99475.31;5008814;28;20129;-83
2023/08/07 07:38:11;;;;;;;2.78;1.77;;;;;;;26.29;40.61;99499.00;4999093;28;20038;-84
2023/08/07 07:40:37;;;;;;;1.75;1.50;;;;;;;26.43;40.12;99496.75;4973690;28;20475;-84
2023/08/07 07:43:03;;;;;;;1.50;1.40;;;;;;;26.76;39.01;99512.31;4991136;28;20112;-83
2023/08/07 07:45:29;;;;;;;3.63;1.50;;;;;;;26.74;38.54;99492.72;4990830;28;20051;-87
2023/08/07 07:47:54;;;;;;;2.65;1.38;;;;;;;27.06;38.59;99523.06;4973044;28;20112;-88
2023/08/07 07:50:20;;;;;;;2.13;1.50;;;;;;;27.29;37.57;99514.41;4990556;28;20124;-85
2023/08/07 07:52:47;;;;;;;2.45;1.30;;;;;;;26.97;37.96;99498.56;4992353;28;20034;-84
2023/08/07 07:55:13;;;;;;;1.65;1.30;;;;;;;26.88;37.90;99497.84;4989685;28;20088;-84
2023/08/07 07:57:40;;;;;;;2.70;1.40;;;;;;;26.73;37.41;99472.00;4991822;28;20125;-87
2023/08/07 08:00:10;;;;;;;2.13;1.45;;;;;;;26.46;39.18;99435.16;4973956;28;20030;-83
2023/08/07 08:02:36;;;;;;;1.88;1.23;;;;;;;26.65;37.72;99476.44;4991499;28;20030;-84
2023/08/07 08:05:02;;;;;;;2.92;1.88;;;;;;;26.66;38.98;99428.00;4991716;28;20413;-85
2023/08/07 08:07:27;;;;;;;2.35;1.50;;;;;;;27.58;38.73;99478.53;4991704;28;20034;-84
2023/08/07 08:09:53;;;;;;;3.15;1.50;;;;;;;27.69;36.86;99472.53;4972835;28;20034;-83
2023/08/07 08:12:24;;;;;;;1.90;1.15;;;;;;;27.89;35.05;99492.69;4991266;28;20530;-88
2023/08/07 08:14:49;;;;;;;4.53;1.40;;;;;;;28.06;34.83;99486.91;4990674;28;20065;-86
2023/08/07 08:17:15;;;;;;;3.50;1.45;;;;;;;28.02;36.04;99459.38;4991080;28;20129;-85
2023/08/07 08:19:40;;;;;;;2.65;1.20;;;;;;;28.53;35.66;99477.16;4989099;28;20041;-86
2023/08/07 08:22:08;;;;;;;1.42;1.20;;;;;;;28.72;34.40;99490.94;4973844;28;20129;-82
2023/08/07 08:24:33;;;;;;;;;;;;;;;28.81;34.56;99488.00;4989609;28;20434;-85
2023/08/07 08:26:58;;;;;;;2.03;1.10;;;;;;;28.68;33.97;99478.31;4990968;28;19914;-84
2023/08/07 08:29:24;;;;;;;1.98;1.25;;;;;;;28.37;34.42;99499.84;4991612;28;20270;-84
2023/08/07 08:31:52;;;;;;;3.22;1.52;;;;;;;28.53;33.46;99480.69;4990122;28;20812;-88
2023/08/07 08:34:18;;;;;;;4.80;1.40;;;;;;;28.66;33.98;99475.91;4989917;28;20023;-86
2023/08/07 08:36:46;;;;;;;1.85;1.33;;;;;;;28.87;34.50;99492.09;4989863;28;20034;-84
2023/08/07 08:39:12;;;;;;;1.88;1.30;;;;;;;29.13;33.35;99486.06;4991196;28;20030;-84
2023/08/07 08:41:38;;;;;;;1.33;1.10;;;;;;;29.19;32.42;99470.88;4973296;28;20380;-88
2023/08/07 08:44:05;;;;;;;1.75;1.20;;;;;;;29.35;32.04;99492.03;4990598;28;20046;-85
2023/08/07 08:46:31;;;;;;;1.85;1.20;;;;;;;29.37;31.70;99486.97;4989663;28;20501;-82
2023/08/07 08:48:58;;;;;;;2.78;1.10;;;;;;;29.64;31.48;99513.44;4988855;28;20045;-82
2023/08/07 08:51:25;;;;;;;1.67;1.27;;;;;;;29.00;30.92;99470.84;4989539;28;20065;-81
2023/08/07 08:53:56;;;;;;;2.03;1.30;;;;;;;29.01;31.96;99464.19;4990216;28;20041;-85
2023/08/07 08:56:22;;;;;;;2.53;1.30;;;;;;;29.17;31.99;99478.69;4989965;28;20034;-85
2023/08/07 08:58:50;;;;;;;1.30;1.10;;;;;;;29.23;31.88;99493.72;4989492;28;20446;-83
2023/08/07 09:01:16;;;;;;;;;;;;;;;29.59;31.09;99494.50;4990926;28;20049;-83
2023/08/07 09:03:45;;;;;;;2.78;1.20;;;;;;;29.24;31.21;99467.88;4973789;28;19960;-85
2023/08/07 09:06:11;;;;;;;1.10;1.00;;;;;;;29.90;30.42;99481.00;4991272;28;20565;-84
2023/08/07 09:08:43;;;;;;;3.17;0.97;;;;;;;30.09;29.23;99482.94;4990530;28;20026;-84
2023/08/07 09:11:13;;;;;;;1.65;1.00;;;;;;;30.11;28.22;99480.59;4989950;28;20495;-83
2023/08/07 09:13:43;;;;;;;1.42;0.60;;;;;;;29.85;27.58;99462.84;4989861;28;20038;-84
2023/08/07 09:16:10;;;;;;;0.65;0.65;;;;;;;29.97;26.70;99487.41;4990693;28;20045;-84
2023/08/07 09:18:36;;;;;;;0.57;0.57;;;;;;;29.66;26.24;99449.88;4987730;28;20026;-82
2023/08/07 09:21:01;;;;;;;1.52;0.50;;;;;;;29.98;27.57;99467.03;4990687;28;20038;-84
2023/08/07 09:23:27;;;;;;;1.42;0.50;;;;;;;29.87;26.18;99432.25;4989668;28;20053;-84
2023/08/07 09:26:00;;;;;;;0.57;0.50;;;;;;;30.18;26.14;99458.72;4990007;28;20045;-82
2023/08/07 09:28:26;;;;;;;3.38;0.73;;;;;;;30.01;26.17;99432.50;4988157;28;20085;-83
2023/08/07 09:30:52;;;;;;;2.30;0.80;;;;;;;30.45;26.61;99462.38;4990827;28;20034;-85
2023/08/07 09:33:27;;;;;;;2.30;0.73;;;;;;;30.68;25.36;99453.31;4988927;28;20455;-83
2023/08/07 09:35:56;;;;;;;1.77;0.70;;;;;;;30.79;25.33;99466.06;4988440;28;20039;-85
2023/08/07 09:38:22;;;;;;;0.73;0.70;;;;;;;30.62;24.58;99441.81;4988532;28;20034;-84
2023/08/07 09:40:51;;;;;;;1.00;0.77;;;;;;;31.11;25.44;99470.47;4987557;28;20549;-87
2023/08/07 09:43:22;;;;;;;1.73;0.80;;;;;;;31.18;25.59;99465.88;4990353;28;20035;-84
2023/08/07 09:45:50;;;;;;;0.77;0.70;;;;;;;31.37;25.00;99442.13;4988066;28;20137;-83
2023/08/07 09:48:24;;;;;;;0.88;0.70;;;;;;;31.96;24.78;99476.28;4987813;28;20041;-85
2023/08/07 09:50:50;;;;;;;2.05;0.70;;;;;;;32.08;24.01;99444.13;4988164;28;20026;-83
2023/08/07 09:53:16;;;;;;;2.75;0.68;;;;;;;32.21;24.54;99462.78;4988139;28;20034;-82
2023/08/07 09:55:41;;;;;;;0.77;0.70;;;;;;;32.17;23.64;99455.63;4987923;28;20037;-88
2023/08/07 09:58:08;;;;;;;0.60;0.60;;;;;;;32.28;22.53;99448.25;4990896;28;20031;-83
2023/08/07 10:00:35;;;;;;;2.30;0.82;;;;;;;32.38;23.21;99469.63;4988113;28;20034;-84
2023/08/07 10:03:02;;;;;;;2.40;1.00;;;;;;;31.91;23.39;99467.56;4987541;28;20030;-84
2023/08/07 10:05:30;;;;;;;1.13;0.90;;;;;;;31.94;22.55;99434.50;4989552;28;20060;-82
2023/08/07 10:07:55;;;;;;;0.80;0.60;;;;;;;32.28;23.97;99442.72;4987589;28;20573;-84
2023/08/07 10:10:23;;;;;;;0.65;0.60;;;;;;;32.54;23.86;99424.41;4991179;28;20124;-85
2023/08/07 10:12:51;;;;;;;1.00;0.75;;;;;;;32.78;22.79;99437.63;4991717;28;20053;-84
2023/08/07 10:15:22;;;;;;;1.27;0.70;;;;;;;33.00;22.00;99432.25;4991430;28;20030;-83
2023/08/07 10:17:47;;;;;;;1.02;0.65;;;;;;;32.61;21.93;99449.31;4974017;28;20491;-85
2023/08/07 10:20:13;;;;;;;1.55;0.77;;;;;;;32.56;24.16;99424.84;4992086;28;20034;-82
2023/08/07 10:22:42;;;;;;;1.10;0.70;;;;;;;33.09;22.91;99431.91;4990006;28;20034;-83
2023/08/07 10:25:08;;;;;;;1.23;0.52;;;;;;;33.27;23.40;99418.19;4992510;28;20037;-84
2023/08/07 10:27:38;;;;;;;1.02;0.70;;;;;;;33.46;22.13;99448.25;4990629;28;20031;-83
2023/08/07 10:30:14;;;;;;;1.77;0.73;;;;;;;33.26;22.22;99444.22;4992902;28;20034;-85
2023/08/07 10:32:42;;;;;;;0.90;0.68;;;;;;;32.98;22.11;99393.16;4992446;28;20030;-81
2023/08/07 10:35:07;;;;;;;2.03;0.90;;;;;;;32.72;21.81;99428.13;4991757;28;20042;-87
2023/08/07 10:37:39;;;;;;;1.30;0.60;;;;;;;32.86;21.42;99432.16;4990034;28;20031;-89
2023/08/07 10:40:09;;;;;;;4.03;0.70;;;;;;;33.48;21.64;99417.47;4992336;28;20109;-83
2023/08/07 10:42:58;;;;;;;0.88;0.73;;;;;;;33.81;22.52;99419.16;4989735;28;20027;-84
2023/08/07 10:45:25;;;;;;;3.00;0.80;;;;;;;33.92;20.83;99403.41;4992731;28;20054;-83
2023/08/07 10:48:02;;;;;;;1.73;1.00;;;;;;;34.10;22.02;99414.44;4992869;28;20089;-84
2023/08/07 10:50:32;;;;;;;1.33;0.82;;;;;;;33.88;20.44;99402.59;4991976;28;20531;-84
2023/08/07 10:53:02;;;;;;;1.15;0.90;;;;;;;33.53;21.76;99403.25;4991165;28;20037;-83
2023/08/07 10:55:42;;;;;;;0.77;0.70;;;;;;;33.42;22.46;99392.19;4990982;28;20095;-82
2023/08/07 10:58:24;;;;;;;1.33;0.63;;;;;;;33.89;23.51;99409.69;4991399;28;20065;-80
2023/08/07 11:00:51;;;;;;;2.08;0.90;;;;;;;34.11;23.21;99409.72;4992300;28;20529;-85
2023/08/07 11:03:29;;;;;;;1.25;0.40;;;;;;;33.98;25.23;99389.94;4992097;28;20287;-82
2023/08/07 11:05:58;;;;;;;3.70;1.33;;;;;;;34.12;26.24;99383.63;4989198;28;20517;-84
2023/08/07 11:08:23;;;;;;;2.83;0.90;;;;;;;33.62;23.08;99379.63;4990860;28;20110;-86
2023/08/07 11:10:51;;;;;;;2.70;0.85;;;;;;;33.11;22.52;99375.09;4990406;28;20134;-82
2023/08/07 11:13:17;;;;;;;1.52;0.90;;;;;;;-145.33;100.00;60416.63;4990703;28;20792;-83
2023/08/07 11:15:44;;;;;;;2.83;1.10;;;;;;;-145.33;100.00;60416.63;4990872;28;20038;-81
2023/08/07 11:18:10;;;;;;;7.72;1.45;;;;;;;-145.33;100.00;60416.63;4989827;28;20030;-84
2023/08/07 11:20:38;;;;;;;3.65;0.85;;;;;;;-145.33;100.00;60416.63;4990640;28;20034;-86
2023/08/07 11:23:04;;;;;;;1.98;0.90;;;;;;;-145.33;100.00;60416.63;4992264;28;20034;-84
2023/08/07 11:25:30;;;;;;;2.38;0.85;;;;;;;-145.33;100.00;60416.63;4988816;28;20554;-84
2023/08/07 11:27:56;;;;;;;1.30;0.95;;;;;;;-145.33;100.00;60416.63;4990854;28;20070;-82
2023/08/07 11:30:21;;;;;;;1.20;0.90;;;;;;;-145.33;100.00;60416.63;4991090;28;20034;-84
2023/08/07 11:32:47;;;;;;;1.10;0.93;;;;;;;-145.33;100.00;60416.63;4988954;28;20038;-83